createdAt,value
2022-09-21T00:00:40.012Z,80.60
2022-09-21T00:03:09.216Z,80.50
2022-09-21T00:05:37.099Z,80.14
2022-09-21T00:08:07.287Z,80.35
2022-09-21T00:10:35.175Z,80.50
2022-09-21T00:13:03.560Z,80.49
2022-09-21T00:15:31.804Z,80.64
2022-09-21T00:18:00.435Z,80.79
2022-09-21T00:20:30.037Z,81.01
2022-09-21T00:22:57.895Z,80.89
2022-09-21T00:25:25.490Z,80.80
2022-09-21T00:27:55.844Z,80.35
2022-09-21T00:30:23.495Z,80.68
2022-09-21T00:32:51.062Z,80.74
2022-09-21T00:35:18.703Z,80.59
2022-09-21T00:37:47.659Z,80.33
2022-09-21T00:40:15.442Z,80.36
2022-09-21T00:42:43.080Z,80.82
2022-09-21T00:45:20.941Z,80.93
2022-09-21T00:47:51.785Z,80.82
2022-09-21T00:50:23.304Z,81.19
2022-09-21T00:52:56.440Z,80.91
2022-09-21T00:55:28.320Z,80.78
2022-09-21T00:57:59.582Z,81.27
2022-09-21T01:00:27.850Z,80.92
2022-09-21T01:03:01.321Z,80.87
2022-09-21T01:05:29.720Z,80.74
2022-09-21T01:08:03.359Z,81.04
2022-09-21T01:10:38.382Z,81.60
2022-09-21T01:13:16.461Z,81.51
2022-09-21T01:15:51.123Z,81.45
2022-09-21T01:18:27.169Z,82.16
2022-09-21T01:21:16.790Z,81.92
2022-09-21T01:24:08.764Z,82.38
2022-09-21T01:26:52.134Z,81.94
2022-09-21T01:29:27.357Z,82.51
2022-09-21T01:31:59.870Z,82.77
2022-09-21T01:34:30.414Z,83.16
2022-09-21T01:37:01.160Z,82.88
2022-09-21T01:39:31.333Z,82.92
2022-09-21T01:42:00.871Z,82.85
2022-09-21T01:44:33.416Z,82.12
2022-09-21T01:47:02.034Z,82.83
2022-09-21T01:49:34.574Z,82.31
2022-09-21T01:52:04.414Z,82.96
2022-09-21T01:54:38.765Z,82.67
2022-09-21T01:57:12.821Z,82.47
2022-09-21T01:59:50.175Z,82.95
2022-09-21T02:02:21.175Z,82.46
2022-09-21T02:04:49.159Z,82.56
2022-09-21T02:07:17.996Z,82.42
2022-09-21T02:09:47.032Z,82.91
2022-09-21T02:12:18.879Z,82.70
2022-09-21T02:14:49.586Z,82.50
2022-09-21T02:17:32.249Z,82.90
2022-09-21T02:20:05.055Z,83.17
2022-09-21T02:22:37.857Z,83.10
2022-09-21T02:25:10.288Z,83.17
2022-09-21T02:27:45.690Z,83.25
2022-09-21T02:30:18.877Z,83.40
2022-09-21T02:32:52.727Z,83.00
2022-09-21T02:35:32.096Z,82.81
2022-09-21T02:38:08.571Z,82.36
2022-09-21T02:40:40.548Z,82.87
2022-09-21T02:43:13.638Z,82.91
2022-09-21T02:45:48.589Z,82.85
2022-09-21T02:48:19.602Z,83.10
2022-09-21T02:50:51.848Z,83.25
2022-09-21T02:53:24.247Z,83.21
2022-09-21T02:55:56.314Z,83.75
2022-09-21T02:58:27.784Z,82.94
2022-09-21T03:00:59.273Z,83.42
2022-09-21T03:03:27.030Z,83.51
2022-09-21T03:05:56.389Z,82.97
2022-09-21T03:08:24.050Z,82.77
2022-09-21T03:10:51.903Z,83.60
2022-09-21T03:13:19.810Z,83.75
2022-09-21T03:15:48.258Z,83.48
2022-09-21T03:18:17.463Z,82.90
2022-09-21T03:20:47.027Z,83.19
2022-09-21T03:23:14.741Z,83.38
2022-09-21T03:25:45.315Z,83.07
2022-09-21T03:28:13.646Z,83.31
2022-09-21T03:30:42.360Z,83.30
2022-09-21T03:33:10.213Z,83.17
2022-09-21T03:35:39.410Z,83.51
2022-09-21T03:38:07.020Z,83.69
2022-09-21T03:40:35.095Z,83.38
2022-09-21T03:43:02.777Z,83.03
2022-09-21T03:45:30.466Z,82.41
2022-09-21T03:47:59.478Z,83.19
2022-09-21T03:50:29.233Z,82.92
2022-09-21T03:52:58.769Z,82.85
2022-09-21T03:55:26.566Z,83.18
2022-09-21T03:57:54.411Z,83.27
2022-09-21T04:00:22.828Z,83.06
2022-09-21T04:02:50.558Z,83.06
2022-09-21T04:05:18.563Z,83.37
2022-09-21T04:07:46.932Z,83.08
2022-09-21T04:10:18.053Z,82.89
2022-09-21T04:12:46.686Z,83.15
2022-09-21T04:15:15.981Z,83.15
2022-09-21T04:17:43.645Z,82.84
2022-09-21T04:20:11.356Z,82.44
2022-09-21T04:22:43.359Z,82.91
2022-09-21T04:25:12.662Z,82.95
2022-09-21T04:27:42.242Z,83.08
2022-09-21T04:30:12.236Z,83.45
2022-09-21T04:32:40.189Z,83.80
2022-09-21T04:35:08.514Z,83.89
2022-09-21T04:37:36.400Z,84.38
2022-09-21T04:40:04.984Z,84.50
2022-09-21T04:42:32.677Z,83.75
2022-09-21T04:45:01.930Z,83.68
2022-09-21T04:47:30.778Z,83.19
2022-09-21T04:49:58.637Z,83.48
2022-09-21T04:52:26.617Z,83.77
2022-09-21T04:54:54.356Z,83.27
2022-09-21T04:57:22.043Z,83.21
2022-09-21T04:59:49.710Z,82.97
2022-09-21T05:02:18.777Z,82.50
2022-09-21T05:04:50.687Z,82.89
2022-09-21T05:07:18.784Z,82.97
2022-09-21T05:10:03.709Z,82.97
2022-09-21T05:12:31.988Z,82.82
2022-09-21T05:14:59.637Z,83.46
2022-09-21T05:17:29.072Z,82.99
2022-09-21T05:19:56.878Z,83.36
2022-09-21T05:22:24.513Z,83.18
2022-09-21T05:24:52.182Z,83.60
2022-09-21T05:27:19.825Z,82.81
2022-09-21T05:29:48.076Z,83.32
2022-09-21T05:32:23.146Z,83.44
2022-09-21T05:35:01.726Z,83.49
2022-09-21T05:37:41.648Z,83.71
2022-09-21T05:40:12.925Z,83.69
2022-09-21T05:42:41.347Z,83.76
2022-09-21T05:45:13.919Z,83.45
2022-09-21T05:47:45.686Z,82.88
2022-09-21T05:50:30.146Z,83.83
2022-09-21T05:53:10.758Z,83.73
2022-09-21T05:55:48.119Z,83.75
2022-09-21T05:58:22.333Z,83.27
2022-09-21T06:01:03.899Z,83.94
2022-09-21T06:03:35.992Z,83.62
2022-09-21T06:06:05.259Z,83.13
2022-09-21T06:08:32.932Z,82.99
2022-09-21T06:11:01.562Z,83.91
2022-09-21T06:13:29.243Z,83.71
2022-09-21T06:15:57.068Z,84.20
2022-09-21T06:18:24.746Z,83.90
2022-09-21T06:20:52.422Z,84.10
2022-09-21T06:23:21.563Z,84.16
2022-09-21T06:25:56.046Z,84.15
2022-09-21T06:28:26.777Z,84.69
2022-09-21T06:30:55.786Z,84.79
2022-09-21T06:33:24.174Z,84.70
2022-09-21T06:35:56.250Z,84.78
2022-09-21T06:38:26.409Z,84.64
2022-09-21T06:40:54.903Z,84.60
2022-09-21T06:43:23.157Z,84.43
2022-09-21T06:45:54.635Z,84.94
2022-09-21T06:48:22.999Z,84.72
2022-09-21T06:50:50.857Z,84.20
2022-09-21T06:53:18.775Z,84.66
2022-09-21T06:55:47.900Z,84.31
2022-09-21T06:58:15.596Z,84.37
2022-09-21T07:00:43.602Z,84.44
2022-09-21T07:03:12.756Z,84.46
2022-09-21T07:05:40.955Z,84.66
2022-09-21T07:10:05.050Z,84.69
2022-09-21T07:11:00.752Z,84.37
2022-09-21T07:13:28.801Z,84.08
2022-09-21T07:15:56.901Z,84.47
2022-09-21T07:18:25.314Z,84.03
2022-09-21T07:20:53.001Z,84.02
2022-09-21T07:23:22.332Z,83.28
2022-09-21T07:25:52.507Z,82.82
2022-09-21T07:28:21.763Z,82.73
2022-09-21T07:30:49.871Z,83.13
2022-09-21T07:33:17.582Z,83.04
2022-09-21T07:35:51.887Z,82.59
2022-09-21T07:38:19.909Z,82.73
2022-09-21T07:40:47.731Z,82.87
2022-09-21T07:43:15.966Z,82.81
2022-09-21T07:45:45.193Z,83.22
2022-09-21T07:48:13.257Z,82.45
2022-09-21T07:50:40.969Z,82.37
2022-09-21T07:53:08.616Z,81.82
2022-09-21T07:55:36.320Z,81.38
2022-09-21T07:58:21.880Z,80.72
2022-09-21T08:00:51.192Z,80.75
2022-09-21T08:03:19.174Z,80.65
2022-09-21T08:05:47.029Z,79.95
2022-09-21T08:08:15.559Z,78.89
2022-09-21T08:10:43.473Z,79.24
2022-09-21T08:13:11.156Z,79.12
2022-09-21T08:15:49.341Z,78.80
2022-09-21T08:18:19.097Z,78.41
2022-09-21T08:20:54.586Z,77.78
2022-09-21T08:23:22.445Z,76.63
2022-09-21T08:25:50.233Z,76.54
2022-09-21T08:28:18.401Z,76.04
2022-09-21T08:30:46.297Z,75.59
2022-09-21T08:33:14.637Z,75.42
2022-09-21T08:35:43.765Z,75.43
2022-09-21T08:38:11.745Z,75.14
2022-09-21T08:40:41.839Z,74.46
2022-09-21T08:43:13.679Z,73.74
2022-09-21T08:45:44.855Z,73.25
2022-09-21T08:48:19.713Z,72.99
2022-09-21T08:50:54.041Z,72.38
2022-09-21T08:53:26.446Z,72.18
2022-09-21T08:55:57.266Z,71.94
2022-09-21T08:58:27.651Z,71.99
2022-09-21T09:01:09.571Z,71.04
2022-09-21T09:03:54.676Z,70.35
2022-09-21T09:06:29.836Z,69.75
2022-09-21T09:09:14.473Z,69.16
2022-09-21T09:11:53.837Z,69.13
2022-09-21T09:14:37.550Z,68.00
2022-09-21T09:17:27.400Z,67.06
2022-09-21T09:20:01.505Z,66.65
2022-09-21T09:22:35.153Z,67.20
2022-09-21T09:25:06.602Z,67.41
2022-09-21T09:27:38.990Z,66.57
2022-09-21T09:30:14.283Z,65.76
2022-09-21T09:32:48.680Z,65.44
2022-09-21T09:35:25.804Z,65.76
2022-09-21T09:38:00.299Z,65.01
2022-09-21T09:40:53.979Z,64.30
2022-09-21T09:43:34.297Z,63.37
2022-09-21T09:46:13.042Z,63.90
2022-09-21T09:48:58.720Z,63.80
2022-09-21T09:51:26.836Z,62.89
2022-09-21T09:54:00.373Z,61.59
2022-09-21T09:56:28.497Z,61.17
2022-09-21T09:59:03.425Z,60.44
2022-09-21T10:01:39.312Z,61.10
2022-09-21T10:04:09.640Z,62.25
2022-09-21T10:06:41.116Z,61.74
2022-09-21T10:09:26.598Z,62.14
2022-09-21T10:11:58.954Z,63.18
2022-09-21T10:14:30.617Z,63.40
2022-09-21T10:17:03.339Z,63.85
2022-09-21T10:19:32.000Z,64.04
2022-09-21T10:22:01.925Z,63.45
2022-09-21T10:24:33.481Z,63.16
2022-09-21T10:27:07.365Z,61.79
2022-09-21T10:29:43.285Z,61.81
2022-09-21T10:32:23.637Z,62.03
2022-09-21T10:35:04.323Z,61.16
2022-09-21T10:37:34.788Z,61.36
2022-09-21T10:40:05.117Z,62.14
2022-09-21T10:42:37.510Z,60.57
2022-09-21T10:45:14.731Z,60.92
2022-09-21T10:47:45.353Z,59.13
2022-09-21T10:50:25.248Z,59.68
2022-09-21T10:52:58.660Z,60.59
2022-09-21T10:55:32.006Z,60.44
2022-09-21T10:58:00.908Z,59.10
2022-09-21T11:00:35.445Z,59.64
2022-09-21T11:03:25.968Z,60.23
2022-09-21T11:05:55.403Z,61.05
2022-09-21T11:08:30.063Z,61.27
2022-09-21T11:11:12.053Z,59.68
2022-09-21T11:13:45.776Z,59.98
2022-09-21T11:16:17.310Z,60.06
2022-09-21T11:18:53.142Z,59.44
2022-09-21T11:21:28.357Z,58.65
2022-09-21T11:24:07.362Z,58.35
2022-09-21T11:29:20.831Z,58.31
2022-09-21T11:32:05.837Z,58.84
2022-09-21T11:34:53.600Z,58.76
2022-09-21T11:37:33.084Z,59.26
2022-09-21T11:40:14.573Z,56.60
2022-09-21T11:42:55.215Z,57.89
2022-09-21T11:45:47.261Z,58.56
2022-09-21T11:48:24.917Z,57.29
2022-09-21T11:51:03.936Z,57.73
2022-09-21T11:53:53.626Z,58.29
2022-09-21T11:56:31.595Z,57.06
2022-09-21T11:59:12.756Z,57.37
2022-09-21T12:01:49.373Z,56.11
2022-09-21T12:04:37.560Z,55.72
2022-09-21T12:07:20.415Z,55.06
2022-09-21T12:10:02.038Z,53.85
2022-09-21T12:12:36.234Z,54.16
2022-09-21T12:15:12.366Z,53.69
2022-09-21T12:17:51.232Z,53.10
2022-09-21T12:20:26.939Z,53.69
2022-09-21T12:23:01.368Z,53.14
2022-09-21T12:25:35.979Z,53.09
2022-09-21T12:28:13.062Z,52.13
2022-09-21T12:30:46.696Z,53.59
2022-09-21T12:33:20.526Z,53.68
2022-09-21T12:38:29.995Z,52.43
2022-09-21T12:41:04.960Z,51.30
2022-09-21T12:43:38.156Z,51.85
2022-09-21T12:46:12.904Z,51.69
2022-09-21T12:48:42.249Z,49.70
2022-09-21T12:51:16.870Z,51.00
2022-09-21T12:53:50.932Z,49.91
2022-09-21T12:56:31.192Z,50.34
2022-09-21T12:59:11.978Z,49.95
2022-09-21T13:01:46.875Z,49.64
2022-09-21T13:04:28.922Z,50.11
2022-09-21T13:07:39.876Z,50.95
2022-09-21T13:10:21.967Z,49.34
2022-09-21T13:12:54.442Z,50.09
2022-09-21T13:15:27.134Z,49.52
2022-09-21T13:18:03.024Z,50.62
2022-09-21T13:20:36.907Z,50.87
2022-09-21T13:23:05.221Z,50.07
2022-09-21T13:25:37.693Z,50.22
2022-09-21T13:28:19.783Z,50.55
2022-09-21T13:30:49.129Z,50.39
2022-09-21T13:33:40.708Z,50.12
2022-09-21T13:36:31.893Z,48.89
2022-09-21T13:39:18.231Z,49.56
2022-09-21T13:42:14.062Z,48.23
2022-09-21T13:44:43.232Z,47.21
2022-09-21T13:47:12.058Z,48.11
2022-09-21T13:49:59.733Z,48.74
2022-09-21T13:52:40.309Z,49.93
2022-09-21T13:55:24.370Z,49.45
2022-09-21T13:57:56.316Z,49.17
2022-09-21T14:00:38.012Z,50.36
2022-09-21T14:03:19.030Z,48.80
2022-09-21T14:05:50.378Z,49.74
2022-09-21T14:08:24.394Z,48.25
2022-09-21T14:10:57.048Z,48.39
2022-09-21T14:13:31.424Z,48.14
2022-09-21T14:16:34.229Z,47.41
2022-09-21T14:19:04.603Z,48.75
2022-09-21T14:21:34.959Z,49.19
2022-09-21T14:24:22.947Z,49.78
2022-09-21T14:26:56.079Z,48.19
2022-09-21T14:29:29.069Z,47.92
2022-09-21T14:32:03.101Z,48.72
2022-09-21T14:34:35.554Z,48.76
2022-09-21T14:37:05.598Z,46.69
2022-09-21T14:39:36.612Z,47.11
2022-09-21T14:42:12.460Z,47.71
2022-09-21T14:44:41.154Z,47.53
2022-09-21T14:47:28.589Z,47.20
2022-09-21T14:50:15.519Z,46.38
2022-09-21T14:52:58.019Z,48.12
2022-09-21T14:55:31.563Z,48.57
2022-09-21T14:58:15.374Z,47.67
2022-09-21T15:00:45.341Z,47.94
2022-09-21T15:03:45.362Z,47.84
2022-09-21T15:06:40.608Z,49.12
2022-09-21T15:09:45.621Z,49.70
2022-09-21T15:12:21.891Z,50.54
2022-09-21T15:15:01.434Z,51.04
2022-09-21T15:17:34.151Z,51.04
2022-09-21T15:20:16.871Z,51.37
2022-09-21T15:22:45.501Z,51.92
2022-09-21T15:25:16.073Z,52.04
2022-09-21T15:27:46.745Z,52.11
2022-09-21T15:30:21.686Z,52.87
2022-09-21T15:32:55.056Z,53.10
2022-09-21T15:35:24.706Z,52.75
2022-09-21T15:37:53.746Z,53.14
2022-09-21T15:40:25.401Z,53.16
2022-09-21T15:43:02.282Z,53.14
2022-09-21T15:45:33.859Z,53.29
2022-09-21T15:48:02.082Z,53.48
2022-09-21T15:50:31.147Z,53.42
2022-09-21T15:53:04.699Z,53.71
2022-09-21T15:55:34.246Z,53.74
2022-09-21T15:58:02.802Z,53.71
2022-09-21T16:00:35.450Z,53.87
2022-09-21T16:03:06.846Z,53.76
2022-09-21T16:05:44.519Z,54.53
2022-09-21T16:08:23.447Z,54.27
2022-09-21T16:10:52.631Z,54.66
2022-09-21T16:13:39.611Z,54.94
2022-09-21T16:16:08.810Z,55.05
2022-09-21T16:18:43.183Z,55.49
2022-09-21T16:21:20.404Z,55.69
2022-09-21T16:23:49.307Z,55.52
2022-09-21T16:26:23.276Z,55.58
2022-09-21T16:28:58.194Z,55.97
2022-09-21T16:31:31.953Z,55.91
2022-09-21T16:34:02.524Z,55.90
2022-09-21T16:36:37.921Z,56.20
2022-09-21T16:39:15.497Z,56.58
2022-09-21T16:41:54.130Z,56.62
2022-09-21T16:44:25.538Z,56.65
2022-09-21T16:46:56.377Z,57.41
2022-09-21T16:49:30.166Z,57.46
2022-09-21T16:51:59.729Z,58.09
2022-09-21T16:54:28.494Z,58.13
2022-09-21T16:57:00.651Z,58.70
2022-09-21T16:59:29.062Z,58.76
2022-09-21T17:01:58.831Z,59.11
2022-09-21T17:04:30.304Z,58.74
2022-09-21T17:06:58.357Z,59.08
2022-09-21T17:09:30.058Z,58.80
2022-09-21T17:12:01.783Z,59.02
2022-09-21T17:14:32.934Z,59.46
2022-09-21T17:17:00.868Z,59.40
2022-09-21T17:19:28.505Z,59.42
2022-09-21T17:21:56.177Z,59.12
2022-09-21T17:24:48.670Z,59.29
2022-09-21T17:27:13.313Z,59.61
2022-09-21T17:29:47.692Z,59.71
2022-09-21T17:32:22.360Z,59.97
2022-09-21T17:34:56.309Z,60.33
2022-09-21T17:37:25.064Z,60.68
2022-09-21T17:39:53.544Z,60.46
2022-09-21T17:42:25.581Z,60.80
2022-09-21T17:45:13.447Z,61.26
2022-09-21T17:47:43.898Z,61.32
2022-09-21T17:50:30.018Z,61.46
2022-09-21T17:53:15.877Z,61.59
2022-09-21T17:55:48.971Z,61.70
2022-09-21T17:58:35.344Z,61.88
2022-09-21T18:01:08.465Z,62.62
2022-09-21T18:03:41.031Z,63.32
2022-09-21T18:06:09.891Z,63.39
2022-09-21T18:08:39.746Z,63.65
2022-09-21T18:11:24.908Z,63.46
2022-09-21T18:14:09.002Z,63.66
2022-09-21T18:16:45.632Z,64.09
2022-09-21T18:19:46.212Z,64.64
2022-09-21T18:22:24.064Z,65.18
2022-09-21T18:24:52.805Z,65.43
2022-09-21T18:27:22.993Z,65.84
2022-09-21T18:29:52.778Z,66.27
2022-09-21T18:32:39.519Z,66.70
2022-09-21T18:35:24.944Z,66.81
2022-09-21T18:38:04.409Z,66.50
2022-09-21T18:40:38.160Z,66.72
2022-09-21T18:43:17.191Z,66.87
2022-09-21T18:45:53.624Z,67.02
2022-09-21T18:48:32.066Z,67.49
2022-09-21T18:51:11.147Z,67.68
2022-09-21T18:53:46.711Z,68.05
2022-09-21T18:56:15.197Z,68.51
2022-09-21T18:58:43.849Z,68.70
2022-09-21T19:01:13.938Z,68.92
2022-09-21T19:03:43.723Z,69.05
2022-09-21T19:06:25.397Z,69.15
2022-09-21T19:09:02.663Z,69.60
2022-09-21T19:11:38.159Z,69.73
2022-09-21T19:14:15.197Z,70.00
2022-09-21T19:16:55.624Z,70.42
2022-09-21T19:19:37.401Z,70.73
2022-09-21T19:22:14.580Z,70.99
2022-09-21T19:24:54.142Z,71.26
2022-09-21T19:27:29.788Z,71.41
2022-09-21T19:30:05.306Z,71.51
2022-09-21T19:32:37.657Z,71.30
2022-09-21T19:35:23.591Z,71.55
2022-09-21T19:37:52.907Z,71.81
2022-09-21T19:40:23.651Z,71.98
2022-09-21T19:43:13.266Z,71.88
2022-09-21T19:45:50.785Z,72.35
2022-09-21T19:48:23.716Z,72.39
2022-09-21T19:50:54.578Z,72.38
2022-09-21T19:53:49.246Z,72.63
2022-09-21T19:56:35.728Z,72.61
2022-09-21T19:59:21.484Z,72.73
2022-09-21T20:01:54.680Z,72.71
2022-09-21T20:04:30.865Z,73.03
2022-09-21T20:07:05.496Z,73.27
2022-09-21T20:09:39.341Z,73.60
2022-09-21T20:12:15.711Z,73.39
2022-09-21T20:14:48.187Z,73.67
2022-09-21T20:17:18.792Z,73.91
2022-09-21T20:19:56.863Z,73.63
2022-09-21T20:22:33.653Z,73.64
2022-09-21T20:25:06.920Z,73.76
2022-09-21T20:27:39.282Z,73.95
2022-09-21T20:30:09.932Z,73.29
2022-09-21T20:32:39.997Z,73.62
2022-09-21T20:35:16.893Z,73.81
2022-09-21T20:37:44.848Z,74.23
2022-09-21T20:40:13.452Z,73.89
2022-09-21T20:42:42.211Z,73.99
2022-09-21T20:45:12.591Z,74.26
2022-09-21T20:47:40.670Z,74.19
2022-09-21T20:50:11.545Z,74.79
2022-09-21T20:52:42.089Z,74.53
2022-09-21T20:55:12.553Z,74.61
2022-09-21T20:57:40.905Z,74.91
2022-09-21T21:00:10.732Z,74.56
2022-09-21T21:02:38.478Z,74.59
2022-09-21T21:05:07.906Z,74.82
2022-09-21T21:07:36.446Z,75.26
2022-09-21T21:10:06.140Z,75.16
2022-09-21T21:12:33.791Z,74.67
2022-09-21T21:15:02.249Z,74.93
2022-09-21T21:17:30.045Z,75.10
2022-09-21T21:19:57.669Z,75.11
2022-09-21T21:22:25.310Z,75.26
2022-09-21T21:24:52.898Z,75.21
2022-09-21T21:27:25.762Z,75.70
2022-09-21T21:29:55.318Z,75.48
2022-09-21T21:32:25.153Z,75.23
2022-09-21T21:34:53.102Z,75.55
2022-09-21T21:37:23.300Z,75.42
2022-09-21T21:39:51.065Z,75.74
2022-09-21T21:42:19.163Z,75.67
2022-09-21T21:44:49.407Z,75.65
2022-09-21T21:50:05.213Z,75.93
2022-09-21T21:52:32.814Z,75.77
2022-09-21T21:55:00.434Z,75.79
2022-09-21T21:57:28.061Z,76.08
2022-09-21T21:59:57.024Z,76.03
2022-09-21T22:02:24.864Z,76.03
2022-09-21T22:04:52.623Z,76.34
2022-09-21T22:07:20.225Z,76.18
2022-09-21T22:09:47.866Z,76.72
2022-09-21T22:12:15.683Z,76.33
2022-09-21T22:14:46.143Z,76.73
2022-09-21T22:17:15.189Z,76.41
2022-09-21T22:19:43.181Z,76.31
2022-09-21T22:22:10.791Z,76.70
2022-09-21T22:24:38.431Z,76.91
2022-09-21T22:27:06.154Z,76.93
2022-09-21T22:29:33.852Z,77.22
2022-09-21T22:32:01.787Z,77.28
2022-09-21T22:34:30.940Z,77.19
2022-09-21T22:36:59.284Z,77.22
2022-09-21T22:39:26.949Z,77.25
2022-09-21T22:41:54.530Z,77.62
2022-09-21T22:44:22.127Z,77.20
2022-09-21T22:46:49.710Z,77.42
2022-09-21T22:49:17.630Z,77.90
2022-09-21T22:51:46.581Z,77.80
2022-09-21T22:54:14.226Z,77.34
2022-09-21T22:56:41.820Z,77.78
2022-09-21T22:59:09.501Z,77.32
2022-09-21T23:01:38.989Z,77.90
2022-09-21T23:04:08.898Z,77.82
2022-09-21T23:06:38.745Z,77.84
2022-09-21T23:09:09.930Z,78.16
2022-09-21T23:11:41.909Z,78.14
2022-09-21T23:14:10.088Z,77.41
2022-09-21T23:16:38.067Z,77.99
2022-09-21T23:19:05.888Z,77.76
2022-09-21T23:21:33.536Z,77.77
2022-09-21T23:24:03.193Z,78.14
2022-09-21T23:26:33.961Z,78.16
2022-09-21T23:29:03.569Z,78.00
2022-09-21T23:31:33.181Z,78.23
2022-09-21T23:34:05.344Z,78.31
2022-09-21T23:36:33.313Z,78.59
2022-09-21T23:39:01.495Z,78.23
2022-09-21T23:41:31.148Z,78.39
2022-09-21T23:44:00.350Z,78.31
2022-09-21T23:46:29.483Z,78.17
2022-09-21T23:48:58.152Z,77.82
2022-09-21T23:51:26.124Z,78.62
2022-09-21T23:53:54.451Z,78.36
2022-09-21T23:56:24.274Z,78.35
2022-09-21T23:58:52.359Z,78.51
